Time;durP1;ratioP1;P1;durP2;ratioP2;P2;SDS_P1;SDS_P2;PMS_P1;PMS_P2;Temp;Humidity;BMP_temperature;BMP_pressure;BME280_temperature;BME280_humidity;BME280_pressure;Samples;Min_cycle;Max_cycle;Signal;HPM_P1;HPM_P2
2023/07/08 00:00:54;;;;;;;2.22;0.80;;;21.30;70.80;;;;;;4834315;29;20501;-69
2023/07/08 00:03:20;;;;;;;1.65;0.85;;;21.20;70.80;;;;;;4839497;29;20380;-68
2023/07/08 00:05:50;;;;;;;1.92;0.80;;;21.20;70.90;;;;;;4847424;29;20045;-68
2023/07/08 00:08:18;;;;;;;3.50;1.23;;;21.10;71.10;;;;;;4848010;29;20048;-68
2023/07/08 00:10:45;;;;;;;2.10;0.80;;;21.10;71.30;;;;;;4834362;29;20267;-68
2023/07/08 00:13:12;;;;;;;1.75;0.73;;;21.10;71.20;;;;;;4831956;29;20038;-68
2023/07/08 00:15:39;;;;;;;2.03;0.90;;;21.10;71.20;;;;;;4835975;29;20025;-69
2023/07/08 00:18:17;;;;;;;2.60;0.90;;;21.10;71.70;;;;;;4821279;29;20048;-68
2023/07/08 00:20:47;;;;;;;2.03;0.82;;;21.00;71.60;;;;;;4834613;29;20040;-69
2023/07/08 00:23:14;;;;;;;1.92;0.70;;;21.00;71.60;;;;;;4840626;29;20048;-68
2023/07/08 00:25:41;;;;;;;2.65;1.13;;;21.00;71.70;;;;;;4831322;29;20041;-68
2023/07/08 00:28:19;;;;;;;1.90;0.95;;;20.90;71.90;;;;;;4844020;29;20697;-69
2023/07/08 00:30:48;;;;;;;1.95;0.93;;;20.90;72.00;;;;;;4834884;29;20496;-69
2023/07/08 00:33:16;;;;;;;1.67;0.70;;;20.90;72.20;;;;;;4800093;29;20421;-68
2023/07/08 00:35:44;;;;;;;2.60;1.20;;;20.90;72.40;;;;;;4817977;29;20040;-68
2023/07/08 00:38:15;;;;;;;2.10;1.08;;;20.80;72.50;;;;;;4833907;29;20511;-68
2023/07/08 00:40:58;;;;;;;3.17;0.80;;;20.80;72.50;;;;;;4818718;29;20493;-68
2023/07/08 00:43:36;;;;;;;2.28;1.10;;;20.80;72.70;;;;;;4826655;29;20029;-69
2023/07/08 00:46:17;;;;;;;4.43;1.20;;;20.80;72.80;;;;;;4847315;29;20472;-69
2023/07/08 00:48:45;;;;;;;2.10;1.10;;;20.70;72.90;;;;;;4823665;29;20041;-68
2023/07/08 00:51:12;;;;;;;1.65;0.98;;;20.70;73.00;;;;;;4836047;29;20037;-68
2023/07/08 00:53:39;;;;;;;3.28;0.77;;;20.70;73.20;;;;;;4815311;29;20398;-68
2023/07/08 00:56:20;;;;;;;3.85;0.80;;;20.70;73.30;;;;;;4833162;29;20056;-69
2023/07/08 00:58:58;;;;;;;3.50;1.00;;;20.60;73.60;;;;;;4832489;29;20060;-68
2023/07/08 01:01:26;;;;;;;2.92;1.10;;;20.60;73.60;;;;;;4836080;29;20442;-68
2023/07/08 01:04:08;;;;;;;1.63;1.05;;;20.50;73.90;;;;;;4843122;29;20037;-68
2023/07/08 01:06:39;;;;;;;1.67;0.95;;;20.50;74.00;;;;;;4828509;29;20036;-68
2023/07/08 01:09:09;;;;;;;3.03;1.00;;;20.40;74.30;;;;;;4833399;29;20959;-68
2023/07/08 01:11:39;;;;;;;2.55;0.88;;;20.40;74.40;;;;;;4820399;29;20393;-68
2023/07/08 01:14:08;;;;;;;2.15;1.00;;;20.30;74.50;;;;;;4833368;29;20045;-69
2023/07/08 01:16:35;;;;;;;2.25;0.95;;;20.30;74.70;;;;;;4835924;29;20037;-68
2023/07/08 01:19:04;;;;;;;1.75;0.82;;;20.30;74.80;;;;;;4834110;29;20044;-68
2023/07/08 01:21:35;;;;;;;2.67;1.27;;;20.20;75.10;;;;;;4837910;29;20512;-68
2023/07/08 01:24:06;;;;;;;2.65;1.15;;;20.20;75.10;;;;;;4812195;29;20033;-69
2023/07/08 01:26:35;;;;;;;3.60;0.90;;;20.10;75.40;;;;;;4844351;29;20449;-68
2023/07/08 01:29:02;;;;;;;2.45;1.30;;;20.10;75.60;;;;;;4832458;29;20393;-68
2023/07/08 01:31:29;;;;;;;2.17;1.00;;;20.00;75.80;;;;;;4833675;29;20041;-68
2023/07/08 01:33:56;;;;;;;2.22;0.90;;;20.00;76.90;;;;;;4819007;29;20052;-68
2023/07/08 01:36:24;;;;;;;2.75;0.98;;;20.00;76.30;;;;;;4835126;29;20512;-68
2023/07/08 01:38:50;;;;;;;3.45;0.82;;;20.00;76.30;;;;;;4834049;29;20041;-68
2023/07/08 01:41:17;;;;;;;3.60;1.83;;;20.00;76.50;;;;;;4826105;29;20029;-68
2023/07/08 01:43:44;;;;;;;3.58;1.25;;;19.90;76.70;;;;;;4841718;29;20029;-68
2023/07/08 01:46:20;;;;;;;3.55;1.52;;;19.90;76.90;;;;;;4844718;29;20037;-69
2023/07/08 01:48:49;;;;;;;4.55;1.27;;;19.90;77.40;;;;;;4803694;29;20033;-69
2023/07/08 01:51:16;;;;;;;2.95;1.17;;;19.80;77.40;;;;;;4835052;29;20033;-69
2023/07/08 01:53:44;;;;;;;3.75;1.02;;;19.80;77.60;;;;;;4830942;29;20052;-68
2023/07/08 01:56:13;;;;;;;6.50;1.13;;;19.80;77.80;;;;;;4832868;29;20044;-68
2023/07/08 01:58:39;;;;;;;1.65;0.80;;;19.80;78.10;;;;;;4818171;29;20095;-68
2023/07/08 02:01:06;;;;;;;3.95;1.30;;;19.80;78.00;;;;;;4822142;29;20040;-68
2023/07/08 02:03:34;;;;;;;4.15;1.25;;;19.80;78.30;;;;;;4826295;29;20299;-68
2023/07/08 02:06:00;;;;;;;1.73;0.80;;;19.70;78.40;;;;;;4831923;29;20036;-68
2023/07/08 02:08:26;;;;;;;3.90;1.23;;;19.80;78.50;;;;;;4836072;29;20029;-68
2023/07/08 02:10:57;;;;;;;3.40;1.10;;;19.80;78.60;;;;;;4834346;29;20044;-68
2023/07/08 02:13:23;;;;;;;2.65;0.98;;;19.80;78.80;;;;;;4818733;29;20459;-68
2023/07/08 02:15:51;;;;;;;3.45;1.23;;;19.70;78.90;;;;;;4834111;29;20041;-68
2023/07/08 02:18:24;;;;;;;2.08;0.98;;;19.70;79.10;;;;;;4817321;29;20606;-68
2023/07/08 02:20:51;;;;;;;3.40;1.00;;;19.60;79.10;;;;;;4820707;29;20037;-68
2023/07/08 02:23:18;;;;;;;3.85;1.40;;;19.60;79.40;;;;;;4838426;29;20030;-68
2023/07/08 02:25:52;;;;;;;4.35;1.38;;;19.60;79.70;;;;;;4848211;29;20496;-68
2023/07/08 02:28:19;;;;;;;3.40;0.90;;;19.50;79.50;;;;;;4847032;29;20516;-69
2023/07/08 02:30:48;;;;;;;2.60;0.88;;;19.50;79.60;;;;;;4819493;29;20037;-68
2023/07/08 02:33:17;;;;;;;3.85;1.45;;;19.50;79.90;;;;;;4835953;29;20041;-68
2023/07/08 02:35:44;;;;;;;3.70;1.08;;;19.40;80.20;;;;;;4823232;29;20040;-68
2023/07/08 02:38:12;;;;;;;1.55;0.77;;;19.40;80.40;;;;;;4838531;29;20480;-69
2023/07/08 02:40:40;;;;;;;2.17;0.98;;;19.40;80.30;;;;;;4821744;29;20397;-68
2023/07/08 02:43:07;;;;;;;2.42;1.02;;;19.40;80.50;;;;;;4842867;29;20040;-68
2023/07/08 02:45:33;;;;;;;2.63;1.05;;;19.30;80.90;;;;;;4832333;29;20033;-68
2023/07/08 02:47:59;;;;;;;2.83;1.52;;;19.30;81.00;;;;;;4846212;29;20048;-68
2023/07/08 02:50:26;;;;;;;2.40;1.00;;;19.30;81.00;;;;;;4820354;29;20033;-68
2023/07/08 02:52:52;;;;;;;3.70;1.20;;;19.30;81.20;;;;;;4818693;29;20049;-69
2023/07/08 02:55:19;;;;;;;1.90;0.85;;;19.30;81.50;;;;;;4837219;29;20617;-71
2023/07/08 02:57:45;;;;;;;3.13;1.05;;;19.20;81.50;;;;;;4837471;29;20061;-73
2023/07/08 03:00:13;;;;;;;4.22;1.35;;;19.20;81.70;;;;;;4837574;29;20477;-75
2023/07/08 03:02:39;;;;;;;2.72;1.30;;;19.10;82.10;;;;;;4840722;29;20212;-71
2023/07/08 03:05:06;;;;;;;3.05;1.10;;;19.10;82.40;;;;;;4847451;29;20037;-68
2023/07/08 03:07:32;;;;;;;2.47;1.40;;;19.10;82.60;;;;;;4845972;29;20500;-68
2023/07/08 03:09:59;;;;;;;3.55;1.35;;;19.10;82.60;;;;;;4820263;29;20480;-68
2023/07/08 03:12:25;;;;;;;2.40;1.40;;;19.00;82.70;;;;;;4818155;29;20060;-68
2023/07/08 03:14:52;;;;;;;2.13;1.10;;;19.00;83.20;;;;;;4839885;29;20484;-68
2023/07/08 03:17:18;;;;;;;3.53;1.60;;;19.00;83.30;;;;;;4837904;29;20029;-68
2023/07/08 03:19:45;;;;;;;2.25;1.20;;;19.00;83.70;;;;;;4833914;29;20033;-68
2023/07/08 03:22:12;;;;;;;1.73;1.10;;;18.90;83.80;;;;;;4834562;29;20048;-69
2023/07/08 03:24:45;;;;;;;3.58;1.30;;;18.90;83.90;;;;;;4846558;29;20656;-69
2023/07/08 03:27:14;;;;;;;2.30;1.17;;;18.90;84.00;;;;;;4831094;29;20448;-68
2023/07/08 03:29:41;;;;;;;2.70;0.85;;;18.80;84.40;;;;;;4817567;29;20037;-69
2023/07/08 03:32:12;;;;;;;4.50;1.58;;;18.80;84.40;;;;;;4831509;29;20052;-68
2023/07/08 03:34:39;;;;;;;4.03;1.40;;;18.80;84.60;;;;;;4835488;29;20045;-69
2023/07/08 03:37:06;;;;;;;2.35;1.10;;;18.80;85.00;;;;;;4819849;29;20484;-69
2023/07/08 03:39:32;;;;;;;2.67;1.30;;;18.80;85.00;;;;;;4818025;29;20038;-68
2023/07/08 03:41:58;;;;;;;2.95;1.00;;;18.80;85.20;;;;;;4832765;29;20037;-68
2023/07/08 03:44:25;;;;;;;2.80;1.40;;;18.80;85.30;;;;;;4847378;29;20396;-69
2023/07/08 03:46:51;;;;;;;3.25;1.25;;;18.80;85.30;;;;;;4846340;29;20032;-69
2023/07/08 03:49:23;;;;;;;3.85;1.33;;;18.80;85.50;;;;;;4822405;29;20044;-69
2023/07/08 03:51:53;;;;;;;2.17;0.80;;;18.80;85.70;;;;;;4798611;29;20049;-69
2023/07/08 03:54:23;;;;;;;3.75;1.25;;;18.80;85.70;;;;;;4832541;29;20056;-69
2023/07/08 03:56:50;;;;;;;1.60;0.70;;;18.80;85.80;;;;;;4831480;29;20392;-69
2023/07/08 03:59:18;;;;;;;2.60;0.88;;;18.80;85.80;;;;;;4831275;29;20057;-68
2023/07/08 04:01:46;;;;;;;3.55;1.13;;;18.80;85.70;;;;;;4802374;29;20064;-69
2023/07/08 04:04:14;;;;;;;2.55;0.77;;;18.80;85.80;;;;;;4829415;29;20032;-69
2023/07/08 04:06:42;;;;;;;5.63;1.25;;;18.80;85.80;;;;;;4845143;29;20064;-69
2023/07/08 04:09:08;;;;;;;2.72;0.90;;;18.80;86.20;;;;;;4836334;29;20180;-69
2023/07/08 04:11:34;;;;;;;2.85;0.90;;;18.80;86.20;;;;;;4830616;29;20052;-69
2023/07/08 04:14:01;;;;;;;3.20;0.90;;;18.80;86.20;;;;;;4833662;29;20049;-69
2023/07/08 04:16:31;;;;;;;2.67;0.95;;;18.80;86.30;;;;;;4832641;29;20040;-69
2023/07/08 04:18:57;;;;;;;2.50;0.90;;;18.90;86.40;;;;;;4827391;29;20095;-68
2023/07/08 04:21:25;;;;;;;2.75;1.35;;;18.90;86.30;;;;;;4833877;29;20044;-69
2023/07/08 04:23:51;;;;;;;2.10;1.02;;;18.90;86.40;;;;;;4838904;29;20055;-69
2023/07/08 04:26:18;;;;;;;3.58;0.85;;;19.00;86.50;;;;;;4845180;29;20037;-69
2023/07/08 04:28:45;;;;;;;4.72;1.30;;;19.00;86.30;;;;;;4822149;29;20049;-69
2023/07/08 04:31:11;;;;;;;12.10;1.23;;;19.00;86.40;;;;;;4831393;29;20041;-69
2023/07/08 04:33:38;;;;;;;1.98;0.90;;;19.10;87.10;;;;;;4812118;29;20404;-69
2023/07/08 04:36:09;;;;;;;2.92;1.33;;;19.10;86.50;;;;;;4817284;29;20485;-68
2023/07/08 04:38:36;;;;;;;3.35;0.93;;;19.20;86.50;;;;;;4813810;29;20093;-69
2023/07/08 04:41:02;;;;;;;1.67;0.95;;;19.20;86.50;;;;;;4832329;29;20029;-69
2023/07/08 04:43:29;;;;;;;2.25;0.82;;;19.30;86.50;;;;;;4838321;29;20393;-70
2023/07/08 04:45:57;;;;;;;4.40;1.27;;;19.30;86.50;;;;;;4844424;29;20044;-69
2023/07/08 04:48:25;;;;;;;2.90;1.20;;;19.40;86.40;;;;;;4844841;29;20056;-69
2023/07/08 04:50:52;;;;;;;2.50;1.10;;;19.50;86.30;;;;;;4833356;29;20401;-69
2023/07/08 04:53:19;;;;;;;4.53;1.02;;;19.50;86.20;;;;;;4832817;29;20041;-69
2023/07/08 04:55:49;;;;;;;2.13;1.13;;;19.60;86.20;;;;;;4834100;29;20052;-69
2023/07/08 04:58:16;;;;;;;1.60;1.00;;;19.70;86.20;;;;;;4834121;29;20271;-69
2023/07/08 05:00:43;;;;;;;2.47;0.93;;;19.70;86.20;;;;;;4833377;29;20056;-69
2023/07/08 05:03:09;;;;;;;3.08;1.10;;;19.80;86.00;;;;;;4831739;29;20037;-69
2023/07/08 05:05:35;;;;;;;4.40;1.27;;;19.80;85.90;;;;;;4830122;29;20052;-69
2023/07/08 05:08:02;;;;;;;1.90;0.98;;;19.80;85.90;;;;;;4847763;29;20041;-69
2023/07/08 05:10:28;;;;;;;2.03;0.82;;;19.70;85.90;;;;;;4837302;29;20044;-69
2023/07/08 05:12:55;;;;;;;3.08;1.23;;;19.70;86.20;;;;;;4829742;29;20053;-69
2023/07/08 05:15:21;;;;;;;3.40;1.38;;;19.60;86.40;;;;;;4835469;29;20047;-69
2023/07/08 05:17:51;;;;;;;2.25;1.08;;;19.60;86.50;;;;;;4835211;29;20127;-69
2023/07/08 05:20:18;;;;;;;2.75;1.05;;;19.60;87.00;;;;;;4832660;29;20037;-69
2023/07/08 05:22:46;;;;;;;2.17;0.88;;;19.70;86.40;;;;;;4830528;29;20365;-68
2023/07/08 05:25:13;;;;;;;2.38;0.75;;;19.90;86.50;;;;;;4843187;29;20037;-69
2023/07/08 05:27:40;;;;;;;4.50;1.25;;;20.10;86.30;;;;;;4845005;29;22256;-69
2023/07/08 05:30:10;;;;;;;2.65;1.30;;;20.20;86.10;;;;;;4838220;29;20041;-69
2023/07/08 05:32:36;;;;;;;3.53;1.15;;;20.40;85.60;;;;;;4829861;29;20037;-69
2023/07/08 05:35:03;;;;;;;2.03;0.90;;;20.50;85.80;;;;;;4849093;29;20041;-70
2023/07/08 05:37:29;;;;;;;4.13;0.90;;;20.70;85.00;;;;;;4832298;29;20049;-69
2023/07/08 05:39:56;;;;;;;3.95;1.20;;;20.80;84.90;;;;;;4817654;29;20064;-68
2023/07/08 05:42:23;;;;;;;3.97;1.10;;;20.90;84.40;;;;;;4827928;29;20584;-69
2023/07/08 05:44:51;;;;;;;2.85;1.08;;;21.00;84.00;;;;;;4842585;29;20071;-69
2023/07/08 05:47:19;;;;;;;1.42;0.90;;;21.10;83.80;;;;;;4846540;29;20421;-69
2023/07/08 05:49:45;;;;;;;2.40;1.23;;;21.20;83.70;;;;;;4825200;29;20044;-68
2023/07/08 05:52:11;;;;;;;3.05;1.17;;;21.30;83.60;;;;;;4828785;29;20045;-69
2023/07/08 05:54:39;;;;;;;3.83;1.33;;;21.40;83.30;;;;;;4820065;29;20063;-69
2023/07/08 05:57:07;;;;;;;2.10;1.00;;;21.50;82.90;;;;;;4834113;29;20061;-69
2023/07/08 05:59:35;;;;;;;2.38;1.20;;;21.60;82.90;;;;;;4830411;29;20190;-69
2023/07/08 06:02:03;;;;;;;3.20;1.13;;;21.70;82.70;;;;;;4832423;29;20052;-69
2023/07/08 06:04:30;;;;;;;2.55;0.90;;;21.90;82.60;;;;;;4841936;29;20038;-69
2023/07/08 06:06:58;;;;;;;8.65;5.88;;;22.10;82.30;;;;;;4830885;29;20041;-69
2023/07/08 06:09:24;;;;;;;3.65;2.33;;;22.30;81.50;;;;;;4842386;29;20076;-69
2023/07/08 06:11:51;;;;;;;4.28;1.67;;;22.50;81.30;;;;;;4816256;29;20041;-69
2023/07/08 06:14:17;;;;;;;4.32;3.20;;;22.60;80.80;;;;;;4834781;29;20045;-69
2023/07/08 06:16:44;;;;;;;3.67;1.50;;;22.80;80.70;;;;;;4836643;29;20051;-68
2023/07/08 06:19:10;;;;;;;2.13;1.05;;;23.00;80.30;;;;;;4834657;29;20048;-69
2023/07/08 06:21:37;;;;;;;3.50;0.93;;;23.10;80.00;;;;;;4833171;29;20033;-70
2023/07/08 06:24:04;;;;;;;2.90;0.98;;;23.40;79.80;;;;;;4837239;29;20040;-67
2023/07/08 06:26:30;;;;;;;2.00;1.00;;;23.70;79.60;;;;;;4849024;29;20412;-66
2023/07/08 06:28:57;;;;;;;4.22;1.35;;;24.00;79.00;;;;;;4846119;29;20625;-68
2023/07/08 06:31:23;;;;;;;4.55;1.00;;;24.10;77.90;;;;;;4843208;29;21900;-67
2023/07/08 06:33:50;;;;;;;2.92;1.05;;;24.20;78.00;;;;;;4834679;29;20041;-68
2023/07/08 06:36:16;;;;;;;3.90;1.58;;;24.30;77.70;;;;;;4837335;29;20041;-68
2023/07/08 06:38:43;;;;;;;2.15;0.82;;;24.30;77.10;;;;;;4835796;29;20524;-68
2023/07/08 06:41:09;;;;;;;2.25;1.00;;;24.20;77.20;;;;;;4834427;29;20048;-68
2023/07/08 06:43:35;;;;;;;3.63;1.08;;;24.00;77.50;;;;;;4834931;29;20035;-68
2023/07/08 06:46:18;;;;;;;3.00;1.10;;;24.00;77.60;;;;;;4834457;29;20033;-67
2023/07/08 06:48:45;;;;;;;1.80;1.13;;;24.10;77.70;;;;;;4846633;29;20293;-69
2023/07/08 06:51:11;;;;;;;7.55;0.90;;;24.20;77.90;;;;;;4842960;29;20033;-69
2023/07/08 06:53:37;;;;;;;3.30;0.90;;;24.20;77.70;;;;;;4819071;29;20041;-68
2023/07/08 06:56:04;;;;;;;2.20;1.30;;;24.20;77.90;;;;;;4821452;29;20365;-69
2023/07/08 06:58:30;;;;;;;4.30;1.25;;;24.30;77.80;;;;;;4836405;29;20366;-68
2023/07/08 07:00:56;;;;;;;3.60;1.17;;;24.30;77.70;;;;;;4834686;29;20652;-69
2023/07/08 07:03:23;;;;;;;4.03;1.10;;;24.40;77.20;;;;;;4836345;29;20420;-69
2023/07/08 07:05:50;;;;;;;2.63;0.93;;;24.50;77.20;;;;;;4831374;29;20860;-69
2023/07/08 07:08:16;;;;;;;1.75;0.80;;;24.60;77.30;;;;;;4845887;29;20041;-69
2023/07/08 07:10:42;;;;;;;3.30;1.17;;;24.80;77.40;;;;;;4842388;29;20100;-69
2023/07/08 07:13:09;;;;;;;3.55;1.45;;;24.90;76.80;;;;;;4834166;29;20033;-69
2023/07/08 07:15:35;;;;;;;2.58;1.80;;;24.90;76.50;;;;;;4834661;29;20045;-69
2023/07/08 07:18:02;;;;;;;3.50;2.22;;;25.00;76.80;;;;;;4822459;29;20382;-69
2023/07/08 07:20:29;;;;;;;2.40;1.50;;;25.10;76.40;;;;;;4832293;29;20022;-69
2023/07/08 07:22:55;;;;;;;2.47;1.50;;;25.20;76.40;;;;;;4818298;29;20385;-69
2023/07/08 07:25:22;;;;;;;2.35;1.17;;;25.30;76.70;;;;;;4828588;29;20535;-69
2023/07/08 07:27:48;;;;;;;1.88;1.05;;;25.40;76.60;;;;;;4832941;29;20037;-68
2023/07/08 07:30:15;;;;;;;2.58;1.27;;;25.50;76.50;;;;;;4841513;29;20038;-69
2023/07/08 07:32:42;;;;;;;1.80;0.90;;;25.60;76.10;;;;;;4835458;29;20036;-69
2023/07/08 07:35:14;;;;;;;1.60;0.90;;;25.70;76.10;;;;;;4838657;29;20416;-68
2023/07/08 07:37:42;;;;;;;5.07;1.23;;;25.80;76.10;;;;;;4821260;29;20044;-69
2023/07/08 07:40:14;;;;;;;2.13;1.00;;;25.90;75.30;;;;;;4835670;29;20052;-69
2023/07/08 07:42:42;;;;;;;2.58;1.40;;;25.90;75.40;;;;;;4834843;29;20380;-69
2023/07/08 07:45:09;;;;;;;2.10;1.20;;;26.10;75.30;;;;;;4840700;29;20041;-69
2023/07/08 07:47:36;;;;;;;2.03;1.27;;;26.20;75.20;;;;;;4847770;29;20029;-70
2023/07/08 07:50:04;;;;;;;3.50;1.70;;;26.30;75.10;;;;;;4844584;29;20033;-67
2023/07/08 07:52:31;;;;;;;1.70;1.15;;;26.40;75.00;;;;;;4837729;29;20033;-69
2023/07/08 07:54:57;;;;;;;5.20;1.58;;;26.50;75.10;;;;;;4836962;29;20045;-69
2023/07/08 07:57:25;;;;;;;2.80;2.08;;;26.60;75.10;;;;;;4838425;29;20305;-69
2023/07/08 07:59:51;;;;;;;3.03;1.80;;;26.70;75.20;;;;;;4835416;29;20491;-69
2023/07/08 08:02:18;;;;;;;2.83;1.15;;;26.80;74.90;;;;;;4834957;29;20045;-69
2023/07/08 08:04:44;;;;;;;2.35;1.73;;;26.90;74.30;;;;;;4813202;29;20072;-69
2023/07/08 08:07:11;;;;;;;3.15;1.52;;;27.10;74.20;;;;;;4846906;29;20052;-69
2023/07/08 08:09:37;;;;;;;3.13;1.70;;;27.20;73.50;;;;;;4845037;29;20044;-69
2023/07/08 08:12:04;;;;;;;1.73;1.23;;;27.30;73.40;;;;;;4839987;29;20045;-69
2023/07/08 08:14:31;;;;;;;2.78;1.65;;;27.40;74.00;;;;;;4822378;29;20493;-69
2023/07/08 08:16:57;;;;;;;4.65;2.05;;;27.50;73.70;;;;;;4837648;29;20032;-69
2023/07/08 08:19:23;;;;;;;2.88;1.70;;;27.60;72.90;;;;;;4837431;29;20037;-69
2023/07/08 08:21:50;;;;;;;1.70;1.15;;;27.80;73.10;;;;;;4832362;29;20118;-70
2023/07/08 08:24:16;;;;;;;2.90;1.40;;;27.80;72.90;;;;;;4836278;29;20040;-70
2023/07/08 08:26:42;;;;;;;4.93;1.85;;;28.00;73.00;;;;;;4847615;29;20025;-69
2023/07/08 08:29:09;;;;;;;4.55;1.75;;;28.00;72.50;;;;;;4842953;29;20049;-69
2023/07/08 08:31:35;;;;;;;3.03;1.80;;;28.20;72.70;;;;;;4839063;29;20041;-70
2023/07/08 08:34:02;;;;;;;2.78;1.73;;;28.30;72.50;;;;;;4821534;29;20041;-70
2023/07/08 08:36:28;;;;;;;2.72;1.27;;;28.30;72.20;;;;;;4836536;29;20033;-69
2023/07/08 08:38:54;;;;;;;3.75;1.80;;;28.40;72.70;;;;;;4816608;29;20056;-69
2023/07/08 08:41:32;;;;;;;2.88;1.45;;;28.40;71.50;;;;;;4821407;29;20607;-69
2023/07/08 08:44:14;;;;;;;2.50;1.38;;;28.50;71.60;;;;;;5065157;27;20451;-68
2023/07/08 08:46:51;;;;;;;2.08;1.30;;;28.70;71.90;;;;;;5057428;28;20058;-69
2023/07/08 08:49:20;;;;;;;3.25;1.67;;;28.80;71.90;;;;;;5070873;28;20031;-69
2023/07/08 08:51:48;;;;;;;1.90;1.10;;;28.90;72.00;;;;;;5067127;28;20485;-69
2023/07/08 08:54:15;;;;;;;2.05;1.42;;;29.00;72.00;;;;;;5064084;28;20035;-69
2023/07/08 08:57:05;;;;;;;3.78;1.70;;;29.10;71.80;;;;;;5066168;28;20366;-69
2023/07/08 08:59:54;;;;;;;2.35;1.55;;;29.30;71.60;;;;;;5061800;28;20048;-69
2023/07/08 09:02:23;;;;;;;4.10;1.40;;;29.30;71.70;;;;;;5061239;28;20051;-68
2023/07/08 09:04:49;;;;;;;3.28;1.40;;;29.40;71.80;;;;;;5048910;28;20490;-69
2023/07/08 09:07:19;;;;;;;3.88;2.72;;;29.50;71.90;;;;;;5087139;28;22773;-69
2023/07/08 09:10:08;;;;;;;5.22;1.90;;;29.60;71.70;;;;;;5071093;28;20032;-69
2023/07/08 09:12:35;;;;;;;3.03;1.98;;;29.80;71.60;;;;;;5068059;28;20390;-69
2023/07/08 09:15:13;;;;;;;3.80;1.75;;;29.90;71.70;;;;;;5067439;28;20366;-69
2023/07/08 09:17:39;;;;;;;3.28;1.73;;;30.00;71.70;;;;;;5066693;28;22545;-69
2023/07/08 09:20:24;;;;;;;3.25;1.80;;;30.10;71.50;;;;;;5062055;28;20486;-69
2023/07/08 09:22:54;;;;;;;4.00;1.90;;;30.20;70.90;;;;;;5043218;28;20486;-69
2023/07/08 09:25:32;;;;;;;4.00;1.65;;;30.30;71.00;;;;;;5065168;28;20035;-69
2023/07/08 09:27:58;;;;;;;1.90;1.60;;;30.40;71.10;;;;;;5054604;28;20043;-69
2023/07/08 09:30:26;;;;;;;5.10;1.55;;;30.50;71.00;;;;;;5067103;28;20024;-69
2023/07/08 09:32:52;;;;;;;4.60;1.98;;;30.70;70.90;;;;;;5063837;28;23051;-69
2023/07/08 09:35:18;;;;;;;2.30;1.92;;;30.80;70.60;;;;;;5048174;28;20032;-69
2023/07/08 09:37:47;;;;;;;3.00;1.98;;;31.00;70.30;;;;;;5064911;28;20031;-69
2023/07/08 09:40:28;;;;;;;2.50;2.20;;;31.10;70.20;;;;;;5041785;28;20731;-69
2023/07/08 09:43:01;;;;;;;4.28;2.85;;;31.20;70.00;;;;;;5060632;28;20046;-69
2023/07/08 09:45:30;;;;;;;3.45;2.08;;;31.10;68.30;;;;;;5064181;28;20043;-69
2023/07/08 09:47:56;;;;;;;3.03;2.05;;;31.10;68.50;;;;;;5073112;28;20027;-69
2023/07/08 09:50:29;;;;;;;2.42;1.55;;;31.10;68.60;;;;;;5066207;28;20502;-69
2023/07/08 09:52:57;;;;;;;2.58;1.60;;;31.30;68.90;;;;;;5066351;28;20040;-69
2023/07/08 09:55:24;;;;;;;3.13;1.80;;;31.40;68.80;;;;;;5051691;28;20475;-69
2023/07/08 09:57:53;;;;;;;4.55;2.28;;;31.60;68.50;;;;;;5048365;28;20040;-69
2023/07/08 10:00:28;;;;;;;3.25;2.40;;;31.80;68.30;;;;;;5045421;28;20032;-69
2023/07/08 10:02:57;;;;;;;3.33;2.22;;;31.90;67.50;;;;;;5045938;28;20040;-69
2023/07/08 10:05:27;;;;;;;2.50;2.15;;;32.10;67.00;;;;;;5048188;28;20032;-69
2023/07/08 10:07:56;;;;;;;3.72;1.88;;;32.20;66.70;;;;;;5050087;28;20036;-69
2023/07/08 10:10:30;;;;;;;3.85;2.67;;;32.30;66.50;;;;;;5052149;28;20032;-69
2023/07/08 10:13:01;;;;;;;3.95;2.50;;;32.30;66.50;;;;;;5047697;28;20048;-69
2023/07/08 10:15:36;;;;;;;3.70;2.42;;;32.40;65.70;;;;;;5047192;28;20416;-69
2023/07/08 10:18:03;;;;;;;3.88;2.75;;;32.40;65.00;;;;;;5045712;28;20038;-69
2023/07/08 10:20:41;;;;;;;3.72;2.70;;;32.60;65.10;;;;;;5041794;28;20036;-69
2023/07/08 10:23:34;;;;;;;4.68;3.17;;;32.70;64.10;;;;;;5043204;28;20745;-69
2023/07/08 10:26:24;;;;;;;8.63;3.47;;;32.80;64.50;;;;;;5048229;28;20036;-69
2023/07/08 10:29:03;;;;;;;3.15;2.80;;;33.00;63.40;;;;;;5063012;28;20032;-69
2023/07/08 10:31:56;;;;;;;3.97;2.45;;;33.10;64.00;;;;;;5052523;28;20039;-69
2023/07/08 10:34:50;;;;;;;3.88;2.78;;;33.40;64.10;;;;;;5055420;28;20056;-69
2023/07/08 10:37:27;;;;;;;3.10;2.00;;;33.70;63.70;;;;;;5045135;28;20036;-70
2023/07/08 10:40:17;;;;;;;3.17;2.85;;;33.80;63.50;;;;;;5041974;28;20043;-70
2023/07/08 10:43:02;;;;;;;6.28;3.15;;;33.90;63.50;;;;;;5040813;28;21283;-69
2023/07/08 10:45:46;;;;;;;2.92;2.50;;;34.10;63.10;;;;;;5062415;28;20040;-70
2023/07/08 10:48:28;;;;;;;3.75;2.60;;;34.50;62.30;;;;;;5047273;28;20055;-70
2023/07/08 10:51:04;;;;;;;6.10;3.08;;;34.70;62.30;;;;;;5047938;28;20036;-70
2023/07/08 10:53:53;;;;;;;5.93;2.80;;;34.90;61.80;;;;;;5054266;28;20654;-70
2023/07/08 10:56:44;;;;;;;4.82;3.67;;;35.20;61.60;;;;;;5036840;28;20036;-70
2023/07/08 10:59:19;;;;;;;3.45;3.08;;;35.30;60.00;;;;;;5058273;28;20036;-69
2023/07/08 11:01:48;;;;;;;5.18;3.05;;;35.50;60.90;;;;;;5038492;28;20040;-69
2023/07/08 11:04:26;;;;;;;3.67;2.70;;;35.70;60.70;;;;;;5046639;28;20711;-69
2023/07/08 11:06:58;;;;;;;6.40;2.90;;;36.10;60.70;;;;;;5048718;28;20032;-70
2023/07/08 11:09:50;;;;;;;4.05;3.10;;;36.20;58.80;;;;;;5047419;28;20394;-70
2023/07/08 11:12:19;;;;;;;3.83;3.47;;;36.40;58.80;;;;;;5053482;28;20035;-70
2023/07/08 11:14:51;;;;;;;4.43;3.60;;;36.50;57.20;;;;;;5057448;28;20070;-69
2023/07/08 11:17:40;;;;;;;6.47;2.90;;;36.40;56.40;;;;;;5034809;28;21689;-70
2023/07/08 11:20:24;;;;;;;5.30;4.05;;;36.40;56.90;;;;;;5041580;28;22213;-70
2023/07/08 11:22:59;;;;;;;3.85;3.20;;;36.60;57.30;;;;;;5041235;28;20043;-70
2023/07/08 11:25:27;;;;;;;5.50;4.28;;;36.90;56.70;;;;;;5046722;28;20637;-70
2023/07/08 11:27:57;;;;;;;3.67;3.25;;;37.30;56.90;;;;;;5046183;28;20510;-69
2023/07/08 11:30:27;;;;;;;5.75;3.53;;;37.70;56.00;;;;;;5045924;28;20503;-69
2023/07/08 11:33:03;;;;;;;8.18;3.65;;;37.90;55.00;;;;;;5050740;28;20119;-70
2023/07/08 11:35:48;;;;;;;3.90;3.20;;;38.30;55.40;;;;;;5055715;28;20604;-70
2023/07/08 11:38:17;;;;;;;4.97;3.75;;;38.60;54.70;;;;;;5050868;28;20509;-70
2023/07/08 11:41:11;;;;;;;7.13;3.60;;;38.70;53.00;;;;;;5045207;28;20032;-70
2023/07/08 11:43:49;;;;;;;5.53;3.30;;;38.80;53.90;;;;;;5027797;28;20048;-70
2023/07/08 11:46:25;;;;;;;4.75;3.25;;;39.10;54.10;;;;;;5032530;28;20040;-70
2023/07/08 11:48:53;;;;;;;5.82;3.33;;;39.60;53.70;;;;;;5063277;28;20036;-70
2023/07/08 11:51:26;;;;;;;5.30;3.50;;;40.10;53.40;;;;;;5056055;28;20024;-69
2023/07/08 11:54:01;;;;;;;6.68;3.45;;;40.50;52.00;;;;;;5055664;28;20039;-70
2023/07/08 11:56:27;;;;;;;6.85;3.60;;;40.60;50.50;;;;;;5057272;28;20457;-70
2023/07/08 11:59:17;;;;;;;4.82;3.25;;;40.50;51.20;;;;;;5077582;27;20042;-70
2023/07/08 12:01:53;;;;;;;4.97;3.72;;;40.90;51.50;;;;;;5044624;28;20029;-67
2023/07/08 12:04:32;;;;;;;3.67;3.35;;;41.20;50.90;;;;;;5049210;28;20487;-69
2023/07/08 12:07:30;;;;;;;5.63;3.58;;;41.40;49.90;;;;;;5047043;28;20039;-69
2023/07/08 12:10:12;;;;;;;4.43;3.28;;;41.40;49.70;;;;;;5044106;28;20426;-69
2023/07/08 12:12:42;;;;;;;4.55;3.72;;;41.80;49.60;;;;;;5036432;28;20047;-69
2023/07/08 12:15:30;;;;;;;5.87;3.80;;;41.90;49.40;;;;;;5061034;28;20339;-69
2023/07/08 12:18:04;;;;;;;5.35;3.40;;;42.10;48.40;;;;;;5054685;28;20027;-69
2023/07/08 12:20:34;;;;;;;5.75;4.10;;;42.20;47.80;;;;;;5045752;28;20043;-69
2023/07/08 12:23:01;;;;;;;4.03;3.53;;;42.30;47.80;;;;;;5032156;28;20051;-69
2023/07/08 12:25:34;;;;;;;3.13;2.78;;;42.40;47.10;;;;;;5051426;28;20481;-70
2023/07/08 12:28:01;;;;;;;5.22;3.67;;;42.60;47.30;;;;;;5049344;28;20402;-69
2023/07/08 12:30:30;;;;;;;5.78;4.03;;;42.70;46.80;;;;;;5046712;28;20468;-69
2023/07/08 12:33:00;;;;;;;5.97;3.65;;;42.80;46.30;;;;;;5054239;28;20553;-69
2023/07/08 12:35:33;;;;;;;4.68;3.97;;;42.80;45.90;;;;;;5043049;28;20700;-69
2023/07/08 12:38:03;;;;;;;5.65;3.88;;;43.00;46.00;;;;;;5056766;28;20518;-69
2023/07/08 12:40:30;;;;;;;4.00;3.60;;;43.20;45.30;;;;;;5043362;28;20418;-69
2023/07/08 12:42:59;;;;;;;5.53;3.60;;;43.00;45.40;;;;;;5047575;28;20036;-69
2023/07/08 12:45:29;;;;;;;8.60;3.67;;;43.30;45.80;;;;;;5049397;28;20032;-69
2023/07/08 12:47:56;;;;;;;6.15;3.95;;;43.70;45.80;;;;;;5032033;28;20076;-69
2023/07/08 12:50:22;;;;;;;4.80;3.65;;;44.10;45.60;;;;;;5045207;28;20024;-69
2023/07/08 12:52:49;;;;;;;4.13;3.72;;;44.60;45.40;;;;;;5049733;28;20530;-69
2023/07/08 12:55:15;;;;;;;4.30;3.80;;;44.90;44.50;;;;;;5057114;28;20032;-69
2023/07/08 12:57:45;;;;;;;4.28;3.88;;;45.10;44.10;;;;;;5056449;28;20040;-69
2023/07/08 13:00:25;;;;;;;6.90;3.85;;;45.30;43.70;;;;;;5046008;28;20032;-69
2023/07/08 13:03:16;;;;;;;5.27;3.60;;;45.40;43.10;;;;;;5046899;28;20036;-69